Atherstone, United Kingdom
Current Conditions -  °F | °C
As of 9:20 PM on Saturday 20 Dec 2014 (Local Time) from EGBB Reporting Station
Few Clouds Few Clouds  
Wind Chill: 41°   Ceiling: Unl
Heat Index: 45°   Visibility: 6mi
Dew Point: 37°   Wind: 6mph
Humidity: 76%   Direction: 250°WSW
Pressure: 30.39"   Gusts: NA
Location:  52.58°N, 1.55°W
Report Text: EGBB 202120Z 25005KT 220V290 9999 FEW037 07/03 Q1029
Loading
Personal Weather Stations






























Interactive Weather Map New forecast layout! Learn more

10-Day Weather Forecast

Advertisements
Track Severe Weather on mobile